Time;durP1;ratioP1;P1;durP2;ratioP2;P2;SDS_P1;SDS_P2;PMS_P1;PMS_P2;Temp;Humidity;BMP_temperature;BMP_pressure;BME280_temperature;BME280_humidity;BME280_pressure;Samples;Min_cycle;Max_cycle;Signal;HPM_P1;HPM_P2
2021/12/17 00:07:00;;;;;;;17.30;11.97;;;8.30;99.90;;;;;;4999772;28;20483;-53
2021/12/17 00:09:25;;;;;;;21.97;14.00;;;8.40;99.90;;;;;;4999745;28;20567;-52
2021/12/17 00:11:51;;;;;;;19.40;12.50;;;8.50;99.90;;;;;;4998768;28;20544;-53
2021/12/17 00:14:26;;;;;;;17.50;13.27;;;8.50;99.90;;;;;;5002665;28;20193;-52
2021/12/17 00:16:53;;;;;;;23.10;12.77;;;8.50;99.90;;;;;;4998761;28;20181;-52
2021/12/17 00:19:33;;;;;;;18.10;12.63;;;8.60;99.90;;;;;;4999358;28;21063;-50
2021/12/17 00:48:59;;;;;;;23.67;13.47;;;8.70;99.90;;;;;;4999688;28;21058;-51
2021/12/17 00:54:21;;;;;;;23.03;13.17;;;8.80;99.90;;;;;;5001271;28;20435;-52
2021/12/17 00:56:51;;;;;;;18.43;12.83;;;8.80;99.90;;;;;;5001337;28;20428;-52
2021/12/17 00:59:18;;;;;;;17.70;12.43;;;8.80;99.90;;;;;;4999255;28;20440;-49
2021/12/17 01:01:44;;;;;;;17.17;11.60;;;8.70;99.90;;;;;;4997804;28;20436;-53
2021/12/17 01:04:11;;;;;;;18.27;12.47;;;8.50;99.90;;;;;;4998546;28;20490;-52
2021/12/17 01:06:37;;;;;;;17.83;13.50;;;8.40;99.90;;;;;;4999556;28;20490;-53
2021/12/17 01:09:05;;;;;;;18.43;12.47;;;8.50;99.90;;;;;;4999927;28;20448;-53
2021/12/17 01:11:31;;;;;;;17.50;11.97;;;8.50;99.90;;;;;;4996119;28;20440;-53
2021/12/17 01:13:56;;;;;;;20.13;13.23;;;8.50;99.90;;;;;;5000274;28;21074;-54
2021/12/17 01:16:23;;;;;;;14.67;11.37;;;8.40;99.90;;;;;;4998021;28;20217;-50
2021/12/17 01:19:13;;;;;;;17.90;11.80;;;8.50;99.90;;;;;;5000578;28;20256;-51
2021/12/17 01:21:59;;;;;;;15.37;11.10;;;8.40;99.90;;;;;;4996542;28;21089;-53
2021/12/17 01:35:23;;;;;;;22.63;12.50;;;8.40;99.90;;;;;;4994948;28;20490;-51
2021/12/17 01:41:12;;;;;;;17.23;11.67;;;8.50;99.90;;;;;;4996537;28;20502;-52
2021/12/17 01:43:44;;;;;;;17.33;11.90;;;8.50;99.90;;;;;;4998398;28;20451;-52
2021/12/17 01:46:12;;;;;;;17.17;12.37;;;8.60;99.90;;;;;;5000406;28;20448;-54
2021/12/17 01:49:00;;;;;;;17.53;12.30;;;8.50;99.90;;;;;;5011986;22;20549;-53
2021/12/17 01:59:40;;;;;;;18.93;13.00;;;8.60;99.90;;;;;;4987576;28;20811;-47
2021/12/17 02:02:08;;;;;;;18.67;12.13;;;8.80;99.90;;;;;;4989475;28;20520;-47
2021/12/17 02:04:36;;;;;;;16.10;12.33;;;8.70;99.90;;;;;;4989900;28;20185;-49
2021/12/17 02:07:04;;;;;;;16.07;11.40;;;8.70;99.90;;;;;;4987629;28;20437;-47
2021/12/17 02:32:01;;;;;;;17.73;11.67;;;8.80;99.90;;;;;;4987638;28;20431;-47
2021/12/17 02:37:11;;;;;;;19.90;13.10;;;8.80;99.90;;;;;;4991079;28;20421;-49
2021/12/17 02:45:30;;;;;;;25.63;12.50;;;8.70;99.90;;;;;;4987593;28;20444;-50
2021/12/17 02:45:36;;;;;;;18.57;13.37;;;8.70;99.90;;;;;;4987540;28;20444;-51
2021/12/17 02:48:09;;;;;;;17.20;11.23;;;8.70;99.90;;;;;;4986262;28;20483;-49
2021/12/17 02:50:40;;;;;;;16.27;12.00;;;8.70;99.90;;;;;;4991009;28;20767;-53
2021/12/17 02:53:07;;;;;;;21.50;13.67;;;8.70;99.90;;;;;;4992278;28;20515;-50
2021/12/17 02:55:39;;;;;;;18.90;12.17;;;8.70;99.90;;;;;;4989273;28;20463;-49
2021/12/17 02:58:06;;;;;;;16.20;12.50;;;8.70;99.90;;;;;;4988641;28;20986;-47
2021/12/17 03:00:34;;;;;;;16.63;11.77;;;8.80;99.90;;;;;;4985853;28;20436;-47
2021/12/17 03:03:03;;;;;;;22.93;12.80;;;8.70;99.90;;;;;;4991997;28;20425;-48
2021/12/17 03:05:29;;;;;;;15.07;11.73;;;8.70;99.90;;;;;;4984482;28;20497;-47
2021/12/17 03:07:56;;;;;;;16.63;11.93;;;8.60;99.90;;;;;;4990332;28;21015;-49
2021/12/17 03:10:22;;;;;;;19.33;13.97;;;8.70;99.90;;;;;;4988206;28;21037;-51
2021/12/17 03:12:56;;;;;;;15.70;11.53;;;8.80;99.90;;;;;;4989012;28;20467;-52
2021/12/17 03:15:35;;;;;;;19.60;12.50;;;8.80;99.90;;;;;;4975506;28;20477;-48
2021/12/17 03:25:51;;;;;;;21.53;13.43;;;8.80;99.90;;;;;;4995895;28;20428;-49
2021/12/17 03:28:17;;;;;;;17.50;12.77;;;8.70;99.90;;;;;;4989836;28;20852;-51
2021/12/17 03:30:43;;;;;;;16.60;13.17;;;8.60;99.90;;;;;;4992024;28;20189;-49
2021/12/17 03:33:09;;;;;;;14.90;11.77;;;8.70;99.90;;;;;;4995614;28;21234;-49
2021/12/17 03:35:35;;;;;;;16.20;12.60;;;8.70;99.90;;;;;;4997039;28;20482;-50
2021/12/17 03:38:00;;;;;;;16.80;11.87;;;8.70;99.90;;;;;;4993076;28;20668;-48
2021/12/17 03:40:28;;;;;;;18.67;13.27;;;8.60;99.90;;;;;;4997056;28;20192;-51
2021/12/17 03:43:01;;;;;;;19.20;13.60;;;8.50;99.90;;;;;;4991282;28;20711;-54
2021/12/17 03:45:27;;;;;;;16.20;11.80;;;8.60;99.90;;;;;;4994078;28;20804;-48
2021/12/17 03:47:53;;;;;;;17.87;12.13;;;8.50;99.90;;;;;;4991194;28;20474;-51
2021/12/17 03:50:19;;;;;;;18.00;13.00;;;8.50;99.90;;;;;;4992492;28;20464;-47
2021/12/17 03:52:44;;;;;;;17.20;11.40;;;8.60;99.90;;;;;;4994440;28;20447;-52
2021/12/17 03:55:10;;;;;;;18.47;12.30;;;8.60;99.90;;;;;;4990492;28;20217;-52
2021/12/17 03:57:36;;;;;;;17.47;12.50;;;8.50;99.90;;;;;;4994014;28;20221;-48
2021/12/17 04:00:06;;;;;;;22.37;12.57;;;8.60;99.90;;;;;;4990286;28;20185;-51
2021/12/17 04:02:32;;;;;;;16.90;12.60;;;8.60;99.90;;;;;;4978757;28;20820;-51
2021/12/17 04:04:58;;;;;;;17.20;12.57;;;8.50;99.90;;;;;;4991814;28;20829;-51
2021/12/17 04:07:23;;;;;;;19.10;13.23;;;8.40;99.90;;;;;;4990138;28;20483;-51
2021/12/17 04:09:49;;;;;;;18.73;13.30;;;8.50;99.90;;;;;;4993526;28;20189;-53
2021/12/17 04:12:18;;;;;;;17.70;13.53;;;8.50;99.90;;;;;;4990003;28;22640;-49
2021/12/17 04:14:46;;;;;;;16.17;12.37;;;8.60;99.90;;;;;;4991517;28;20194;-48
2021/12/17 04:17:20;;;;;;;18.70;12.07;;;8.60;99.90;;;;;;4992211;28;20596;-49
2021/12/17 04:19:46;;;;;;;15.07;12.33;;;8.50;99.90;;;;;;4988874;28;20943;-50
2021/12/17 04:22:11;;;;;;;18.10;12.13;;;8.60;99.90;;;;;;4991979;28;20433;-49
2021/12/17 04:24:37;;;;;;;16.53;12.10;;;8.60;99.90;;;;;;4972476;28;20185;-51
2021/12/17 04:27:03;;;;;;;19.27;13.40;;;8.60;99.90;;;;;;4990376;28;20634;-48
2021/12/17 04:29:28;;;;;;;18.07;12.63;;;8.50;99.90;;;;;;4989945;28;20190;-51
2021/12/17 04:31:56;;;;;;;18.50;12.83;;;8.50;99.90;;;;;;4990812;28;20626;-56
2021/12/17 04:34:24;;;;;;;17.60;12.33;;;8.60;99.90;;;;;;4990341;28;20182;-48
2021/12/17 04:36:53;;;;;;;19.57;12.73;;;8.70;99.90;;;;;;4989415;28;20437;-52
2021/12/17 04:39:21;;;;;;;20.10;13.53;;;8.70;99.90;;;;;;4987281;28;20459;-50
2021/12/17 04:41:53;;;;;;;14.80;11.00;;;8.70;99.90;;;;;;4989186;28;20436;-53
2021/12/17 04:44:25;;;;;;;16.13;12.63;;;8.60;99.90;;;;;;4994441;28;20428;-50
2021/12/17 04:57:40;;;;;;;16.33;12.40;;;8.80;99.90;;;;;;4998794;28;20519;-48
2021/12/17 05:00:17;;;;;;;14.70;11.33;;;8.90;99.90;;;;;;4990689;28;20448;-52
2021/12/17 05:02:47;;;;;;;15.93;10.20;;;8.80;99.90;;;;;;4990219;28;20432;-53
2021/12/17 05:05:15;;;;;;;15.00;11.77;;;8.70;99.90;;;;;;4993300;28;20489;-52
2021/12/17 05:07:47;;;;;;;15.60;11.37;;;8.80;99.90;;;;;;4992795;28;20862;-54
2021/12/17 05:10:25;;;;;;;16.33;11.93;;;8.80;99.90;;;;;;4993541;28;20503;-47
2021/12/17 05:18:34;;;;;;;15.40;11.00;;;8.90;99.90;;;;;;4992093;28;20537;-48
2021/12/17 05:21:04;;;;;;;12.97;9.67;;;9.00;99.90;;;;;;4988852;28;20566;-52
2021/12/17 05:23:36;;;;;;;12.90;10.10;;;9.00;99.90;;;;;;4992348;28;20838;-52
2021/12/17 05:26:05;;;;;;;12.47;8.77;;;9.00;99.90;;;;;;4987528;28;20425;-49
2021/12/17 05:28:31;;;;;;;13.03;10.20;;;8.80;99.90;;;;;;4992513;28;20460;-50
2021/12/17 05:30:57;;;;;;;16.20;10.57;;;8.90;99.90;;;;;;4991139;28;20439;-51
2021/12/17 05:33:24;;;;;;;15.07;10.97;;;8.80;99.90;;;;;;4989723;28;20194;-50
2021/12/17 05:35:50;;;;;;;9.70;8.60;;;8.90;99.90;;;;;;4991637;28;20467;-50
2021/12/17 05:38:18;;;;;;;15.23;10.23;;;9.10;99.90;;;;;;4990498;28;20457;-51
2021/12/17 05:40:45;;;;;;;12.40;9.47;;;9.10;99.90;;;;;;4991193;28;20429;-52
2021/12/17 05:43:12;;;;;;;10.80;9.03;;;9.20;99.90;;;;;;4988194;28;20456;-52
2021/12/17 05:48:10;;;;;;;12.50;9.60;;;9.20;99.90;;;;;;4988495;28;20464;-53
2021/12/17 05:50:38;;;;;;;15.53;9.37;;;9.20;99.90;;;;;;4987931;28;21118;-53
2021/12/17 05:53:05;;;;;;;12.57;10.10;;;9.30;99.90;;;;;;4987893;28;20428;-52
2021/12/17 05:55:32;;;;;;;14.37;9.93;;;9.20;99.90;;;;;;4987009;28;20527;-52
2021/12/17 05:57:58;;;;;;;14.10;9.63;;;9.20;99.90;;;;;;4987900;28;20463;-53
2021/12/17 06:00:24;;;;;;;15.13;10.10;;;9.30;99.90;;;;;;4986247;28;20439;-53
2021/12/17 06:02:51;;;;;;;12.90;10.20;;;9.30;99.90;;;;;;4972928;28;20434;-51
2021/12/17 06:05:16;;;;;;;11.80;9.67;;;9.30;99.90;;;;;;4987054;28;20518;-50
2021/12/17 06:07:42;;;;;;;14.67;9.30;;;9.30;99.90;;;;;;4988985;28;20969;-49
2021/12/17 06:10:09;;;;;;;14.50;10.40;;;9.30;99.90;;;;;;4987518;28;20645;-49
2021/12/17 06:12:36;;;;;;;15.10;10.97;;;9.20;99.90;;;;;;4972321;28;20986;-52
2021/12/17 06:15:06;;;;;;;16.53;10.07;;;9.20;99.90;;;;;;4987446;28;20463;-52
2021/12/17 06:17:32;;;;;;;13.37;9.60;;;9.10;99.90;;;;;;4991204;28;20452;-52
2021/12/17 06:19:58;;;;;;;11.07;9.27;;;9.20;99.90;;;;;;4990798;28;20437;-52
2021/12/17 06:22:23;;;;;;;13.00;9.43;;;9.30;99.90;;;;;;4970593;28;20469;-51
2021/12/17 06:24:49;;;;;;;11.97;8.70;;;9.30;99.90;;;;;;4996176;28;20272;-52
2021/12/17 06:27:16;;;;;;;12.90;9.30;;;9.20;99.90;;;;;;4992450;28;20225;-51
2021/12/17 06:29:43;;;;;;;12.93;10.27;;;9.20;99.90;;;;;;4991919;28;20724;-52
2021/12/17 06:32:08;;;;;;;14.80;11.37;;;9.20;99.90;;;;;;4994012;28;20807;-51
2021/12/17 06:34:34;;;;;;;13.07;10.00;;;9.10;99.90;;;;;;4995107;28;20429;-50
2021/12/17 06:37:00;;;;;;;17.00;10.67;;;9.10;99.90;;;;;;4991278;28;20444;-52
2021/12/17 06:39:26;;;;;;;16.87;11.60;;;9.10;99.90;;;;;;4992539;28;20181;-50
2021/12/17 06:41:51;;;;;;;15.83;11.40;;;9.10;99.90;;;;;;4997574;28;20793;-50
2021/12/17 06:44:22;;;;;;;15.83;10.63;;;9.10;99.90;;;;;;4990996;28;20740;-48
2021/12/17 06:55:15;;;;;;;15.50;10.43;;;8.90;99.90;;;;;;4993466;28;20513;-47
2021/12/17 06:58:51;;;;;;;12.83;10.13;;;8.90;99.90;;;;;;4988382;28;21119;-51
2021/12/17 07:06:11;;;;;;;12.53;9.27;;;8.90;99.90;;;;;;4993196;28;20483;-52
2021/12/17 07:11:15;;;;;;;18.73;11.27;;;8.80;99.90;;;;;;4993125;28;20447;-52
2021/12/17 07:24:14;;;;;;;12.07;9.77;;;8.90;99.90;;;;;;4996442;28;20452;-52
2021/12/17 07:31:19;;;;;;;10.50;8.30;;;8.90;99.90;;;;;;4993058;28;20536;-51
2021/12/17 07:39:51;;;;;;;11.37;8.53;;;9.10;99.90;;;;;;4992437;28;20498;-47
2021/12/17 07:42:17;;;;;;;11.80;8.80;;;9.00;99.90;;;;;;4987019;28;20178;-52
2021/12/17 07:44:42;;;;;;;9.30;8.00;;;9.10;99.90;;;;;;4987071;28;20587;-48
2021/12/17 07:47:08;;;;;;;12.10;8.00;;;9.20;99.90;;;;;;4990651;28;20289;-53
2021/12/17 07:49:34;;;;;;;12.00;8.50;;;9.10;99.90;;;;;;4973835;28;20186;-48
2021/12/17 07:52:00;;;;;;;13.30;9.03;;;9.00;99.90;;;;;;4987711;28;20500;-51
2021/12/17 07:54:25;;;;;;;12.40;8.27;;;9.00;99.90;;;;;;4989219;28;20437;-51
2021/12/17 07:56:51;;;;;;;9.40;7.13;;;9.00;99.90;;;;;;4990225;28;20197;-48
2021/12/17 07:59:17;;;;;;;11.97;9.07;;;9.10;99.90;;;;;;4989257;28;20565;-50
2021/12/17 08:01:42;;;;;;;13.43;8.30;;;9.10;99.90;;;;;;4984651;28;20707;-52
2021/12/17 08:04:10;;;;;;;8.30;7.40;;;9.30;99.90;;;;;;4991425;28;20192;-48
2021/12/17 08:06:36;;;;;;;12.20;8.40;;;9.40;99.90;;;;;;4966967;28;20727;-48
2021/12/17 08:09:06;;;;;;;9.20;8.23;;;9.30;99.90;;;;;;4987955;28;20464;-48
2021/12/17 08:11:37;;;;;;;9.40;7.40;;;9.30;99.90;;;;;;4984301;28;20471;-47
2021/12/17 08:14:06;;;;;;;10.70;7.07;;;9.40;99.90;;;;;;4986820;28;20944;-49
2021/12/17 08:16:54;;;;;;;8.90;7.93;;;9.40;99.90;;;;;;4991074;28;20471;-50
2021/12/17 08:27:42;;;;;;;10.17;7.83;;;9.70;99.90;;;;;;4986614;28;20592;-51
2021/12/17 08:32:45;;;;;;;12.20;7.80;;;9.70;99.90;;;;;;4989591;28;20523;-48
2021/12/17 08:35:12;;;;;;;9.03;7.40;;;9.70;99.90;;;;;;4988205;28;20469;-52
2021/12/17 08:37:38;;;;;;;7.17;6.40;;;9.60;99.90;;;;;;4975891;28;20549;-51
2021/12/17 08:40:05;;;;;;;8.70;7.27;;;9.60;99.90;;;;;;4988975;28;21087;-50
2021/12/17 08:42:31;;;;;;;10.47;7.33;;;9.50;99.90;;;;;;4989270;28;20455;-51
2021/12/17 08:44:56;;;;;;;9.53;7.70;;;9.50;99.90;;;;;;4994076;28;20437;-46
2021/12/17 08:47:22;;;;;;;9.00;7.20;;;9.50;99.90;;;;;;4986069;28;20264;-46
2021/12/17 08:49:50;;;;;;;9.57;7.37;;;9.60;99.90;;;;;;4981029;28;20725;-47
2021/12/17 08:52:16;;;;;;;10.10;7.90;;;9.60;99.90;;;;;;4989872;28;20437;-49
2021/12/17 08:54:42;;;;;;;9.47;7.70;;;9.40;99.90;;;;;;4988327;28;20442;-47
2021/12/17 08:57:09;;;;;;;11.43;7.10;;;9.30;99.90;;;;;;4987362;28;21309;-47
2021/12/17 08:59:35;;;;;;;9.50;7.60;;;9.30;99.90;;;;;;4982655;28;20468;-50
2021/12/17 09:02:02;;;;;;;10.53;8.47;;;9.30;99.90;;;;;;4983545;28;20451;-48
2021/12/17 09:04:27;;;;;;;10.60;7.90;;;9.40;99.90;;;;;;4989757;28;21145;-52
2021/12/17 09:06:56;;;;;;;9.13;7.07;;;9.40;99.90;;;;;;4988529;28;20441;-48
2021/12/17 09:09:22;;;;;;;8.90;7.50;;;9.50;99.90;;;;;;4975575;28;20190;-48
2021/12/17 09:11:49;;;;;;;10.07;7.60;;;9.50;99.90;;;;;;4987428;28;20441;-52
2021/12/17 09:14:19;;;;;;;13.40;8.43;;;9.60;99.90;;;;;;4986645;28;21847;-52
2021/12/17 09:16:46;;;;;;;12.20;9.07;;;9.40;99.90;;;;;;4983561;28;20519;-51
2021/12/17 09:19:11;;;;;;;12.40;8.60;;;9.50;99.90;;;;;;4965002;28;20456;-49
2021/12/17 09:21:37;;;;;;;8.33;7.10;;;9.50;99.90;;;;;;4984116;28;20512;-49
2021/12/17 09:24:03;;;;;;;10.87;7.50;;;9.50;99.90;;;;;;4981511;28;20194;-50
2021/12/17 09:26:32;;;;;;;14.83;7.43;;;9.40;99.90;;;;;;4978058;28;20190;-48
2021/12/17 09:28:58;;;;;;;14.87;9.33;;;9.40;99.90;;;;;;4955868;28;20464;-51
2021/12/17 09:31:27;;;;;;;12.60;8.80;;;9.50;99.90;;;;;;4978827;28;21001;-50
2021/12/17 09:33:53;;;;;;;25.97;15.10;;;9.40;99.90;;;;;;4977827;28;20518;-53
2021/12/17 09:36:20;;;;;;;11.90;8.60;;;9.60;99.90;;;;;;4978803;28;20481;-54
2021/12/17 09:38:52;;;;;;;8.87;7.10;;;9.60;99.90;;;;;;4976686;28;20214;-52
2021/12/17 09:41:20;;;;;;;7.93;6.43;;;9.50;99.90;;;;;;4976156;28;20441;-48
2021/12/17 09:43:47;;;;;;;10.93;6.93;;;9.60;99.90;;;;;;4972108;28;20953;-52
2021/12/17 09:46:15;;;;;;;7.80;6.83;;;9.50;99.90;;;;;;4965639;28;20491;-53
2021/12/17 09:48:44;;;;;;;14.50;10.00;;;9.40;99.90;;;;;;4974446;28;20457;-50
2021/12/17 09:51:09;;;;;;;8.87;7.40;;;9.40;99.90;;;;;;4977808;28;20442;-51
2021/12/17 09:53:35;;;;;;;13.73;8.77;;;9.60;99.90;;;;;;4978192;28;20543;-53
2021/12/17 09:56:02;;;;;;;9.27;7.67;;;9.40;99.90;;;;;;4976863;28;20210;-49
2021/12/17 09:58:29;;;;;;;11.70;7.27;;;9.50;99.90;;;;;;4977285;28;20457;-52
2021/12/17 10:00:55;;;;;;;9.73;7.27;;;9.50;99.90;;;;;;4979225;28;20441;-50
2021/12/17 10:03:20;;;;;;;9.00;7.40;;;9.60;99.90;;;;;;4959766;28;21025;-54
2021/12/17 10:05:46;;;;;;;10.03;7.90;;;9.50;99.90;;;;;;4978120;28;20453;-50
2021/12/17 10:08:19;;;;;;;8.40;7.50;;;9.50;99.90;;;;;;4976106;28;20214;-51
2021/12/17 10:11:06;;;;;;;10.40;8.13;;;9.60;99.90;;;;;;4973918;28;20453;-51
2021/12/17 10:13:34;;;;;;;10.93;6.27;;;9.60;99.90;;;;;;4977499;28;20459;-52
2021/12/17 10:16:07;;;;;;;10.87;7.53;;;9.70;99.90;;;;;;4978939;28;20468;-49
2021/12/17 10:18:46;;;;;;;9.60;5.90;;;9.70;99.90;;;;;;4976636;28;20528;-51
2021/12/17 10:21:23;;;;;;;7.80;6.73;;;9.60;99.90;;;;;;4977864;28;20439;-49
2021/12/17 10:23:51;;;;;;;7.23;6.27;;;9.70;99.90;;;;;;4977969;28;20945;-51
2021/12/17 10:26:20;;;;;;;9.33;7.23;;;9.60;99.90;;;;;;4959359;28;20444;-50
2021/12/17 10:29:00;;;;;;;9.23;6.57;;;9.70;99.90;;;;;;4976271;28;20464;-49
2021/12/17 10:31:28;;;;;;;7.63;5.77;;;9.70;99.90;;;;;;4976334;28;20449;-50
2021/12/17 10:33:55;;;;;;;8.50;6.93;;;9.70;99.90;;;;;;4982440;28;20874;-51
2021/12/17 10:36:43;;;;;;;9.30;7.03;;;9.70;99.90;;;;;;4976735;28;20464;-50
2021/12/17 10:39:30;;;;;;;8.90;6.43;;;9.70;99.90;;;;;;4976582;28;20551;-50
2021/12/17 10:41:56;;;;;;;8.27;6.50;;;9.70;99.90;;;;;;4977433;28;20436;-48
2021/12/17 10:44:23;;;;;;;9.63;6.40;;;9.80;99.90;;;;;;4962655;28;20464;-47
2021/12/17 10:47:29;;;;;;;8.50;6.77;;;9.70;99.90;;;;;;4975976;28;20209;-51
2021/12/17 10:49:56;;;;;;;8.37;6.67;;;9.80;99.90;;;;;;4970351;28;21338;-49
2021/12/17 10:52:32;;;;;;;10.00;6.93;;;9.80;99.90;;;;;;4970334;28;20459;-49
2021/12/17 10:55:27;;;;;;;8.90;7.30;;;9.80;99.90;;;;;;4970623;28;21004;-52
2021/12/17 10:57:58;;;;;;;9.83;8.43;;;9.80;99.90;;;;;;4965715;28;20923;-49
2021/12/17 11:00:24;;;;;;;10.43;8.07;;;9.90;99.90;;;;;;4968842;28;20526;-50
2021/12/17 11:02:54;;;;;;;9.87;7.67;;;9.90;99.90;;;;;;4975544;28;20465;-47
2021/12/17 11:05:21;;;;;;;8.70;7.73;;;9.90;99.90;;;;;;4978348;28;20407;-47
2021/12/17 11:07:48;;;;;;;11.53;7.90;;;9.90;99.90;;;;;;4963000;28;21040;-48
2021/12/17 11:10:15;;;;;;;8.70;7.00;;;10.00;99.90;;;;;;4978883;28;20448;-46
2021/12/17 11:12:44;;;;;;;7.30;6.23;;;10.00;99.90;;;;;;4981231;28;20448;-46
2021/12/17 11:15:14;;;;;;;8.07;6.27;;;10.00;99.90;;;;;;4966707;28;20496;-49
2021/12/17 11:17:42;;;;;;;8.50;6.43;;;10.10;99.90;;;;;;4982228;28;20461;-50
2021/12/17 11:20:13;;;;;;;8.00;6.30;;;10.10;99.90;;;;;;4974531;28;20499;-49
2021/12/17 11:22:40;;;;;;;13.70;6.80;;;10.10;99.90;;;;;;4973286;28;20429;-49
2021/12/17 11:25:07;;;;;;;8.60;6.43;;;10.20;99.90;;;;;;4980568;28;20880;-47
2021/12/17 11:27:32;;;;;;;6.70;5.83;;;10.10;99.90;;;;;;4980825;28;20540;-49
2021/12/17 11:30:00;;;;;;;8.30;6.43;;;10.10;99.90;;;;;;4975554;28;20506;-50
2021/12/17 11:32:26;;;;;;;10.63;7.40;;;10.10;99.90;;;;;;4961922;28;21607;-47
2021/12/17 11:34:53;;;;;;;8.10;6.50;;;10.20;99.90;;;;;;4979056;28;20567;-49
2021/12/17 11:37:20;;;;;;;8.97;7.03;;;10.20;99.90;;;;;;4979062;28;20473;-46
2021/12/17 11:39:59;;;;;;;6.70;5.30;;;10.30;99.90;;;;;;4977472;28;20874;-50
2021/12/17 11:42:59;;;;;;;7.43;6.23;;;10.40;99.90;;;;;;4979834;28;20433;-46
2021/12/17 11:45:30;;;;;;;8.67;5.70;;;10.50;99.90;;;;;;4979896;28;20459;-49
2021/12/17 11:48:13;;;;;;;7.67;6.40;;;10.70;99.90;;;;;;4977681;28;20508;-51
2021/12/17 11:50:38;;;;;;;7.33;5.73;;;11.40;99.90;;;;;;4978554;28;20483;-47
2021/12/17 11:53:24;;;;;;;7.27;5.80;;;12.10;99.90;;;;;;4961354;28;20461;-48
2021/12/17 11:56:03;;;;;;;6.20;5.10;;;12.90;99.90;;;;;;4980674;28;20212;-49
2021/12/17 11:58:51;;;;;;;8.87;6.17;;;13.80;99.90;;;;;;4980724;28;20449;-49
2021/12/17 12:01:52;;;;;;;7.07;6.37;;;14.40;99.90;;;;;;4983321;28;20440;-48
2021/12/17 12:04:33;;;;;;;7.80;5.97;;;14.10;99.90;;;;;;4982238;28;20479;-50
2021/12/17 12:07:15;;;;;;;8.40;6.43;;;13.80;99.90;;;;;;4982242;28;20436;-48
2021/12/17 12:10:04;;;;;;;7.50;6.37;;;13.60;99.90;;;;;;4982886;28;20440;-51
2021/12/17 12:12:42;;;;;;;7.20;6.50;;;13.50;99.90;;;;;;4982146;28;20977;-47
2021/12/17 12:15:23;;;;;;;7.50;6.00;;;13.40;99.90;;;;;;4979879;28;20472;-47
2021/12/17 12:17:57;;;;;;;8.43;6.50;;;13.80;99.90;;;;;;4982224;28;20823;-49
2021/12/17 12:20:48;;;;;;;7.87;6.90;;;14.80;99.90;;;;;;4981946;28;20821;-49
2021/12/17 12:23:38;;;;;;;9.93;7.83;;;15.90;99.90;;;;;;4980474;28;21338;-48
2021/12/17 12:29:05;;;;;;;7.87;7.07;;;18.20;99.90;;;;;;4983270;28;20456;-51
2021/12/17 12:31:32;;;;;;;8.37;7.00;;;19.10;99.90;;;;;;4969925;28;20206;-50
2021/12/17 12:34:04;;;;;;;7.33;6.50;;;19.60;99.90;;;;;;4981539;28;20442;-48
2021/12/17 12:36:57;;;;;;;8.50;7.27;;;19.70;99.90;;;;;;4977352;28;20767;-51
2021/12/17 12:39:44;;;;;;;7.73;6.70;;;18.70;99.90;;;;;;4980082;28;20429;-48
2021/12/17 12:42:23;;;;;;;8.40;6.77;;;18.50;99.90;;;;;;4975391;28;20425;-49
2021/12/17 12:44:49;;;;;;;7.27;6.07;;;18.70;99.90;;;;;;4977880;28;20484;-48
2021/12/17 12:47:20;;;;;;;7.53;6.60;;;18.50;99.90;;;;;;4979586;28;20524;-46
2021/12/17 12:49:52;;;;;;;7.67;6.50;;;17.90;99.90;;;;;;4979600;28;20203;-48
2021/12/17 12:52:24;;;;;;;8.63;7.73;;;17.10;99.90;;;;;;4976155;28;20588;-49
2021/12/17 12:54:52;;;;;;;9.17;7.57;;;16.30;99.90;;;;;;4980430;28;20441;-48
2021/12/17 12:57:28;;;;;;;8.47;6.93;;;15.50;99.90;;;;;;4973483;28;20464;-46
2021/12/17 12:59:56;;;;;;;8.00;6.60;;;15.00;99.90;;;;;;4980410;28;20449;-50
2021/12/17 13:02:25;;;;;;;8.60;6.73;;;14.50;99.90;;;;;;4979997;28;20439;-51
2021/12/17 13:04:57;;;;;;;8.87;7.20;;;14.40;99.90;;;;;;4975006;28;20635;-47
2021/12/17 13:07:33;;;;;;;8.10;6.73;;;14.00;99.90;;;;;;4976352;28;20456;-51
2021/12/17 13:10:08;;;;;;;8.17;7.10;;;13.70;99.90;;;;;;4962712;28;20436;-47
2021/12/17 13:12:35;;;;;;;9.70;7.03;;;13.60;99.90;;;;;;4973350;28;20452;-50
2021/12/17 13:23:52;;;;;;;11.40;7.83;;;13.60;99.90;;;;;;4981998;28;20429;-48
2021/12/17 13:26:20;;;;;;;9.10;7.20;;;13.70;99.90;;;;;;4980259;28;20465;-47
2021/12/17 13:28:51;;;;;;;8.80;6.87;;;13.80;99.90;;;;;;4980746;28;20467;-50
2021/12/17 13:31:40;;;;;;;11.13;7.37;;;13.80;99.90;;;;;;4972627;28;20461;-49
2021/12/17 13:34:14;;;;;;;10.40;6.90;;;13.60;99.90;;;;;;4979004;28;20436;-49
2021/12/17 13:36:53;;;;;;;7.90;6.63;;;13.40;99.90;;;;;;4980847;28;20480;-49
2021/12/17 13:39:21;;;;;;;8.63;6.47;;;13.50;99.90;;;;;;4978671;28;20484;-47
2021/12/17 13:41:47;;;;;;;9.10;7.43;;;13.50;99.90;;;;;;4980492;28;20510;-49
2021/12/17 13:44:39;;;;;;;10.80;9.10;;;13.40;99.90;;;;;;4979234;28;20444;-49
2021/12/17 13:47:20;;;;;;;16.50;12.60;;;13.30;99.90;;;;;;4980686;28;20436;-46
2021/12/17 13:50:05;;;;;;;12.20;9.33;;;13.10;99.90;;;;;;4978166;28;20456;-49
2021/12/17 13:52:33;;;;;;;11.10;9.30;;;13.00;99.90;;;;;;4978219;28;20448;-46
2021/12/17 13:55:02;;;;;;;11.83;9.23;;;12.80;99.90;;;;;;4979918;28;20516;-47
2021/12/17 13:57:30;;;;;;;10.90;9.33;;;12.70;99.90;;;;;;4982182;28;20464;-50
2021/12/17 14:00:26;;;;;;;9.80;8.30;;;12.60;99.90;;;;;;4979358;28;20524;-47
2021/12/17 14:02:56;;;;;;;10.93;8.20;;;12.50;99.90;;;;;;4969309;28;20897;-49
2021/12/17 14:08:37;;;;;;;9.60;8.60;;;12.30;99.90;;;;;;4967356;28;20469;-50
2021/12/17 14:11:03;;;;;;;11.27;9.00;;;12.10;99.90;;;;;;4961768;28;20985;-47
2021/12/17 14:13:29;;;;;;;12.70;9.27;;;12.20;99.90;;;;;;4979322;28;20476;-50
2021/12/17 14:15:55;;;;;;;10.97;8.57;;;12.20;99.90;;;;;;4980207;28;20221;-48
2021/12/17 14:18:23;;;;;;;11.50;8.80;;;12.10;99.90;;;;;;4979538;28;20803;-48
2021/12/17 14:20:54;;;;;;;13.20;9.50;;;11.90;99.90;;;;;;4973440;28;20448;-49
2021/12/17 14:23:25;;;;;;;11.27;9.50;;;11.80;99.90;;;;;;4973864;28;20449;-51
2021/12/17 14:25:53;;;;;;;11.50;9.60;;;12.00;99.90;;;;;;4981355;28;20600;-51
2021/12/17 14:28:30;;;;;;;10.33;8.50;;;11.80;99.90;;;;;;4977320;28;20468;-48
2021/12/17 14:31:03;;;;;;;11.83;8.67;;;11.70;99.90;;;;;;4977230;28;20554;-53
2021/12/17 14:33:37;;;;;;;11.00;8.40;;;11.80;99.90;;;;;;4977198;28;20440;-52
2021/12/17 14:36:14;;;;;;;14.57;9.70;;;11.70;99.90;;;;;;4979970;28;21146;-50
2021/12/17 14:38:46;;;;;;;10.40;8.63;;;11.70;99.90;;;;;;4978227;28;20453;-46
2021/12/17 14:41:20;;;;;;;24.77;13.37;;;11.70;99.90;;;;;;4979628;28;20494;-49
2021/12/17 14:43:54;;;;;;;13.10;9.17;;;11.60;99.90;;;;;;4976409;28;20442;-47
2021/12/17 14:46:31;;;;;;;12.40;9.23;;;11.60;99.90;;;;;;4981746;28;20907;-46
2021/12/17 14:57:17;;;;;;;13.70;9.10;;;11.40;99.90;;;;;;4980325;28;20467;-51
2021/12/17 14:58:02;;;;;;;9.30;7.23;;;11.40;99.90;;;;;;4965749;28;20480;-49
2021/12/17 15:00:44;;;;;;;10.37;7.67;;;11.30;99.90;;;;;;4976362;28;20476;-48
2021/12/17 15:05:45;;;;;;;8.40;7.50;;;11.00;99.90;;;;;;4971851;28;20900;-51
2021/12/17 15:08:10;;;;;;;8.37;7.23;;;10.90;99.90;;;;;;4972525;28;21066;-48
2021/12/17 15:10:36;;;;;;;8.30;7.30;;;10.90;99.90;;;;;;4977299;28;20833;-46
2021/12/17 15:13:03;;;;;;;8.70;6.83;;;11.00;99.90;;;;;;4977180;28;20607;-47
2021/12/17 15:15:35;;;;;;;8.20;7.13;;;11.00;99.90;;;;;;4977477;28;20213;-47
2021/12/17 15:18:02;;;;;;;8.80;7.17;;;10.90;99.90;;;;;;5007155;22;20909;-60
2021/12/17 15:20:32;;;;;;;12.40;7.20;;;10.80;99.90;;;;;;4994980;28;20447;-60
2021/12/17 15:23:00;;;;;;;12.23;7.40;;;10.70;99.90;;;;;;4993837;28;20435;-60
2021/12/17 15:25:27;;;;;;;8.70;7.27;;;10.60;99.90;;;;;;4998238;28;20431;-60
2021/12/17 15:27:53;;;;;;;9.40;7.60;;;10.70;99.90;;;;;;4996062;28;20470;-60
2021/12/17 15:30:22;;;;;;;10.60;8.60;;;10.80;99.90;;;;;;4998489;28;20456;-60
2021/12/17 15:32:49;;;;;;;7.83;6.83;;;10.80;99.90;;;;;;4994040;28;20803;-60
2021/12/17 15:35:17;;;;;;;12.33;7.57;;;10.80;99.90;;;;;;4998498;28;20456;-60
2021/12/17 15:37:43;;;;;;;20.20;10.90;;;10.80;99.90;;;;;;4998182;28;20448;-62
2021/12/17 15:40:11;;;;;;;12.73;9.10;;;10.90;99.90;;;;;;4997940;28;20490;-59
2021/12/17 15:42:36;;;;;;;10.93;8.13;;;10.70;99.90;;;;;;4993903;28;20436;-59
2021/12/17 15:45:04;;;;;;;12.97;9.73;;;10.70;99.90;;;;;;4994919;28;20443;-59
2021/12/17 15:47:30;;;;;;;10.73;7.83;;;10.60;99.90;;;;;;4997966;28;20581;-59
2021/12/17 15:49:55;;;;;;;12.97;10.60;;;10.50;99.90;;;;;;4997187;28;20432;-59
2021/12/17 15:52:21;;;;;;;9.03;7.50;;;10.50;99.90;;;;;;4993233;28;20248;-59
2021/12/17 15:54:47;;;;;;;8.70;7.43;;;10.50;99.90;;;;;;4994400;28;20192;-60
2021/12/17 15:57:15;;;;;;;8.17;6.30;;;10.30;99.90;;;;;;4994957;28;20690;-61
2021/12/17 15:59:41;;;;;;;9.17;7.47;;;10.50;99.90;;;;;;4993841;28;20317;-59
2021/12/17 16:02:07;;;;;;;10.07;7.83;;;10.50;99.90;;;;;;4989218;28;20436;-59
2021/12/17 16:04:37;;;;;;;9.17;6.87;;;10.60;99.90;;;;;;4995262;28;20304;-62